CST,Max TemperatureF,Mean TemperatureF,Min TemperatureF,Max Dew PointF,MeanDew PointF,Min DewpointF,Max Humidity, Mean Humidity, Min Humidity, Max Sea Level PressureIn, Mean Sea Level PressureIn, Min Sea Level PressureIn, Max VisibilityMiles, Mean VisibilityMiles, Min VisibilityMiles, Max Wind SpeedMPH, Mean Wind SpeedMPH, Max Gust SpeedMPH,PrecipitationIn, CloudCover, Events, WindDirDegrees
2011-11-1,64,50,36,45,38,32,85,67,48,30.05,29.95,29.86,10,10,8,17,8,22,0.00,2,,176
2011-11-2,50,43,36,41,39,36,100,83,66,30.20,30.11,29.96,10,9,5,20,7,25,0.13,7,Rain,346
2011-11-3,51,40,29,34,31,27,92,66,39,30.30,30.24,30.15,10,10,10,14,6,17,0.00,0,,4
2011-11-4,51,37,23,34,30,24,100,74,48,30.38,30.31,30.17,10,7,0,13,7,18,0.00,1,Fog,152
2011-11-5,56,48,39,43,37,32,79,67,55,30.18,30.03,29.86,10,9,7,22,12,26,0.00,1,,160
2011-11-6,62,50,38,46,40,28,80,63,46,30.05,29.83,29.75,10,9,7,29,14,36,0.00,3,,193
2011-11-7,58,46,34,32,27,17,76,49,21,30.24,30.18,30.07,10,10,10,12,4,13,0.00,0,,177
2011-11-8,46,43,40,34,31,25,76,61,45,30.20,30.14,30.07,10,10,10,12,5,14,T,8,Rain,7
2011-11-9,45,39,32,36,31,24,100,75,49,30.05,29.95,29.88,10,7,2,22,13,29,0.44,6,Rain-Snow,328
2011-11-10,42,36,30,32,28,22,89,74,59,30.06,29.99,29.92,10,8,2,20,12,26,0.01,7,Snow,294
2011-11-11,47,37,27,31,26,22,85,62,38,30.02,29.81,29.68,10,10,10,23,9,29,0.00,2,,173
2011-11-12,58,45,31,38,34,31,96,70,43,29.68,29.56,29.33,10,10,7,21,10,25,0.00,0,,169
2011-11-13,55,47,39,43,37,32,76,65,54,29.56,29.35,29.24,10,10,10,17,7,22,T,4,Rain,199
2011-11-14,59,48,36,39,31,23,85,60,35,29.68,29.56,29.46,10,10,8,24,9,31,T,2,,200
2011-11-15,57,45,33,34,27,19,82,57,32,29.94,29.71,29.62,10,10,10,25,11,33,T,2,Rain,227
2011-11-16,40,33,26,18,15,7,58,43,27,30.17,30.09,29.94,10,10,10,25,13,31,0.00,0,,287
2011-11-17,33,26,19,14,12,8,73,55,36,30.24,30.17,30.02,10,10,10,17,9,20,0.00,0,,249
2011-11-18,49,41,32,31,26,16,70,56,42,29.99,29.80,29.72,10,10,10,25,11,32,0.00,0,,166
2011-11-19,41,35,29,37,33,28,100,85,70,30.07,29.76,29.66,10,6,1,20,7,25,0.11,7,Rain-Snow,324
2011-11-20,32,30,28,27,25,23,85,79,72,30.39,30.30,30.09,10,10,10,18,6,23,0.00,8,,331
2011-11-21,39,33,26,31,28,23,92,84,75,30.39,30.32,30.25,10,10,8,7,1,9,0.00,7,,149
2011-11-22,46,37,28,34,31,27,100,81,62,30.26,30.14,30.02,9,6,4,12,5,14,0.00,5,,41
2011-11-23,43,38,32,37,34,30,96,86,76,30.21,30.16,30.10,7,5,2,16,7,18,0.00,8,,182
2011-11-24,54,48,41,43,41,37,89,79,68,30.12,29.96,29.80,10,6,3,22,13,29,0.00,3,,172
2011-11-25,54,51,47,46,43,39,93,76,59,29.79,29.77,29.74,10,8,5,20,11,26,0.00,6,,178
2011-11-26,53,45,37,50,44,31,100,91,82,29.97,29.77,29.70,10,5,2,25,10,32,0.22,8,Rain,240
2011-11-27,37,34,30,29,25,22,76,70,64,30.23,30.13,29.98,10,10,10,24,14,31,0.00,8,,352
2011-11-28,37,33,29,27,24,22,85,75,64,30.23,30.17,30.11,10,10,10,13,5,16,0.00,4,,228
2011-11-29,40,31,22,27,20,14,85,61,37,30.27,30.21,30.13,10,10,10,22,11,25,0.00,0,,349
2011-11-30,45,31,17,19,16,14,92,62,31,30.14,30.06,29.94,10,10,10,13,7,17,0.00,1,,164